Terminal Aerodrome Forecast
Issued by NWS

Home | Current Version | Previous Version | Graphics & Text | Print | Product List | Glossary On
Versions: 1 2 3 4 5 6 7 8 9 10 11 12 13 14 15 16 17 18 19 20 21
000
FTUS43 KGRB 161731
TAFRHI
TAF
KRHI 161731Z 1618/1718 19009G14KT P6SM SCT200
     FM162200 17006KT P6SM BKN150
     FM170400 18007KT P6SM -TSRA BKN070CB
     FM170800 22007KT P6SM -TSRA OVC014CB
     FM171100 26006KT P6SM -SHRA OVC015
     FM171400 28007KT P6SM BKN080=

USA.gov is the U.S. government's official web portal to all federal, state and local government web resources and services.